createdAt,value
2019-04-12T00:00:23.209Z,44.35
2019-04-12T00:00:49.425Z,44.26
2019-04-12T00:01:16.522Z,44.19
2019-04-12T00:01:43.744Z,44.26
2019-04-12T00:02:10.852Z,44.07
2019-04-12T00:02:37.993Z,44.17
2019-04-12T00:03:05.106Z,44.07
2019-04-12T00:03:31.693Z,44.45
2019-04-12T00:03:58.660Z,44.26
2019-04-12T00:04:24.865Z,44.35
2019-04-12T00:04:51.989Z,43.98
2019-04-12T00:05:18.124Z,43.98
2019-04-12T00:05:45.214Z,44.07
2019-04-12T00:06:11.374Z,43.98
2019-04-12T00:06:38.490Z,43.88
2019-04-12T00:07:05.586Z,43.88
2019-04-12T00:07:33.193Z,43.88
2019-04-12T00:08:01.165Z,44.17
2019-04-12T00:08:25.997Z,44.35
2019-04-12T00:08:52.443Z,44.54
2019-04-12T00:09:19.557Z,44.35
2019-04-12T00:09:46.657Z,44.64
2019-04-12T00:10:13.800Z,44.38
2019-04-12T00:10:39.904Z,44.45
2019-04-12T00:11:06.040Z,43.98
2019-04-12T00:11:32.147Z,44.07
2019-04-12T00:11:58.256Z,44
2019-04-12T00:12:24.422Z,43.98
2019-04-12T00:12:50.582Z,43.79
2019-04-12T00:13:16.717Z,43.88
2019-04-12T00:13:42.840Z,43.98
2019-04-12T00:14:08.976Z,44.28
2019-04-12T00:14:35.106Z,44.17
2019-04-12T00:15:02.227Z,43.98
2019-04-12T00:15:28.397Z,44.54
2019-04-12T00:15:55.516Z,44.17
2019-04-12T00:16:22.611Z,44.57
2019-04-12T00:16:49.306Z,44.45
2019-04-12T00:17:16.409Z,44.64
2019-04-12T00:17:44.172Z,44.54
2019-04-12T00:18:11.964Z,44.45
2019-04-12T00:18:36.778Z,44.64
2019-04-12T00:19:03.923Z,44.35
2019-04-12T00:19:30.130Z,44.83
2019-04-12T00:19:57.250Z,44.93
2019-04-12T00:20:24.370Z,44.83
2019-04-12T00:20:51.515Z,44.85
2019-04-12T00:21:18.706Z,44.47
2019-04-12T00:21:45.526Z,44.85
2019-04-12T00:22:15.576Z,44.35
2019-04-12T00:22:39.146Z,44.67
2019-04-12T00:23:06.256Z,44.64
2019-04-12T00:23:33.400Z,45.14
2019-04-12T00:24:00.540Z,44.67
2019-04-12T00:24:34.523Z,44.67
2019-04-12T00:24:56.763Z,44.85
2019-04-12T00:25:23.270Z,44.85
2019-04-12T00:25:50.407Z,44.54
2019-04-12T00:26:18.391Z,44.83
2019-04-12T00:26:43.660Z,44.93
2019-04-12T00:27:09.819Z,44.95
2019-04-12T00:27:36.950Z,44.73
2019-04-12T00:28:04.055Z,45.33
2019-04-12T00:28:30.238Z,45.59
2019-04-12T00:28:57.340Z,45.78
2019-04-12T00:29:24.454Z,45.4
2019-04-12T00:29:51.071Z,45.5
2019-04-12T00:30:20.968Z,45.42
2019-04-12T00:30:43.827Z,45.42
2019-04-12T00:31:10.928Z,45.4
2019-04-12T00:31:37.088Z,45.52
2019-04-12T00:32:03.193Z,45.61
2019-04-12T00:32:30.309Z,45.52
2019-04-12T00:32:56.450Z,45.61
2019-04-12T00:33:22.942Z,45.8
2019-04-12T00:33:52.439Z,45.33
2019-04-12T00:34:16.241Z,45.52
2019-04-12T00:34:43.329Z,45.52
2019-04-12T00:35:10.424Z,45.5
2019-04-12T00:35:37.525Z,45.21
2019-04-12T00:36:04.630Z,45.68
2019-04-12T00:36:30.757Z,45.42
2019-04-12T00:36:57.858Z,45.42
2019-04-12T00:37:24.982Z,45.59
2019-04-12T00:37:55.085Z,45.8
2019-04-12T00:38:18.190Z,45.61
2019-04-12T00:38:45.288Z,45.61
2019-04-12T00:39:12.389Z,45.42
2019-04-12T00:39:39.514Z,45.42
2019-04-12T00:40:05.679Z,45.42
2019-04-12T00:40:32.776Z,45.52
2019-04-12T00:41:01.805Z,45.5
2019-04-12T00:41:26.017Z,45.4
2019-04-12T00:41:53.116Z,45.87
2019-04-12T00:42:20.211Z,45.87
2019-04-12T00:42:47.312Z,45.87
2019-04-12T00:43:13.450Z,46.06
2019-04-12T00:43:40.554Z,46
2019-04-12T00:44:07.673Z,45.71
2019-04-12T00:44:34.771Z,45.59
2019-04-12T00:45:04.025Z,45.5
2019-04-12T00:45:27.986Z,45.4
2019-04-12T00:45:55.086Z,45.5
2019-04-12T00:46:22.185Z,46.06
2019-04-12T00:46:49.307Z,45.97
2019-04-12T00:47:16.452Z,46.06
2019-04-12T00:47:43.569Z,45.87
2019-04-12T00:48:10.300Z,45.78
2019-04-12T00:48:38.502Z,45.5
2019-04-12T00:49:02.969Z,45.5
2019-04-12T00:49:30.079Z,45.87
2019-04-12T00:49:57.130Z,46.06
2019-04-12T00:50:23.289Z,46.06
2019-04-12T00:50:50.414Z,46.16
2019-04-12T00:51:17.514Z,46.16
2019-04-12T00:51:44.668Z,46.64
2019-04-12T00:52:13.790Z,46.64
2019-04-12T00:52:37.905Z,46.54
2019-04-12T00:53:04.048Z,46.54
2019-04-12T00:53:31.164Z,46.45
2019-04-12T00:53:58.268Z,46.45
2019-04-12T00:54:24.901Z,46.25
2019-04-12T00:54:53.049Z,46.73
2019-04-12T00:55:19.564Z,46.92
2019-04-12T00:55:48.338Z,46.73
2019-04-12T00:56:13.382Z,46.35
2019-04-12T00:56:39.524Z,46.54
2019-04-12T00:57:05.668Z,46.45
2019-04-12T00:57:31.784Z,46.06
2019-04-12T00:57:58.909Z,45.97
2019-04-12T00:58:26.014Z,45.97
2019-04-12T00:58:53.118Z,45.78
2019-04-12T00:59:20.233Z,45.68
2019-04-12T00:59:47.325Z,45.97
2019-04-12T01:00:15.379Z,45.97
2019-04-12T01:00:40.559Z,45.97
2019-04-12T01:01:07.674Z,45.97
2019-04-12T01:01:34.782Z,45.78
2019-04-12T01:02:01.905Z,45.87
2019-04-12T01:02:28.025Z,45.97
2019-04-12T01:02:55.163Z,45.68
2019-04-12T01:03:21.595Z,45.78
2019-04-12T01:03:48.715Z,45.87
2019-04-12T01:04:16.155Z,46.16
2019-04-12T01:04:44.005Z,46.25
2019-04-12T01:05:09.109Z,46.54
2019-04-12T01:05:36.196Z,46.45
2019-04-12T01:06:03.287Z,46.25
2019-04-12T01:06:30.413Z,46.35
2019-04-12T01:06:57.503Z,46.54
2019-04-12T01:07:24.622Z,46.73
2019-04-12T01:07:52.727Z,46.54
2019-04-12T01:08:20.697Z,46.54
2019-04-12T01:08:45.935Z,46.73
2019-04-12T01:09:13.035Z,46.54
2019-04-12T01:09:40.139Z,46.45
2019-04-12T01:10:07.253Z,46.64
2019-04-12T01:10:33.669Z,46.45
2019-04-12T01:11:00.762Z,46.54
2019-04-12T01:11:27.860Z,46.35
2019-04-12T01:11:55.314Z,46.35
2019-04-12T01:12:20.104Z,46.25
2019-04-12T01:12:47.210Z,46.64
2019-04-12T01:13:13.534Z,46.54
2019-04-12T01:13:40.631Z,46.54
2019-04-12T01:14:07.731Z,46.35
2019-04-12T01:14:34.825Z,46.35
2019-04-12T01:15:00.957Z,46.92
2019-04-12T01:15:29.934Z,46.54
2019-04-12T01:15:54.161Z,46.73
2019-04-12T01:16:21.257Z,47.02
2019-04-12T01:16:48.354Z,47.11
2019-04-12T01:17:15.445Z,47.02
2019-04-12T01:17:42.546Z,47.39
2019-04-12T01:18:09.671Z,47.39
2019-04-12T01:18:36.771Z,47.87
2019-04-12T01:19:03.186Z,47.87
2019-04-12T01:19:32.859Z,47.97
2019-04-12T01:19:56.374Z,48.16
2019-04-12T01:20:23.467Z,47.87
2019-04-12T01:20:49.599Z,47.97
2019-04-12T01:21:16.849Z,48.06
2019-04-12T01:21:43.341Z,47.77
2019-04-12T01:22:10.441Z,47.58
2019-04-12T01:22:38.459Z,47.77
2019-04-12T01:23:02.707Z,47.77
2019-04-12T01:23:29.831Z,48.06
2019-04-12T01:23:56.962Z,48.06
2019-04-12T01:24:24.054Z,47.87
2019-04-12T01:24:57.276Z,47.58
2019-04-12T01:25:20.307Z,47.58
2019-04-12T01:25:47.362Z,47.97
2019-04-12T01:26:15.358Z,48.18
2019-04-12T01:26:40.567Z,48.18
2019-04-12T01:27:07.696Z,47.8
2019-04-12T01:27:34.795Z,48.18
2019-04-12T01:28:01.891Z,47.61
2019-04-12T01:28:29.016Z,47.89
2019-04-12T01:28:56.115Z,47.89
2019-04-12T01:29:22.244Z,48.37
2019-04-12T01:29:48.563Z,47.87
2019-04-12T01:30:14.515Z,48.06
2019-04-12T01:30:40.627Z,48.27
2019-04-12T01:31:06.727Z,48.27
2019-04-12T01:31:32.838Z,48.27
2019-04-12T01:31:58.948Z,47.99
2019-04-12T01:32:25.058Z,47.99
2019-04-12T01:32:51.198Z,48.54
2019-04-12T01:33:17.306Z,48.54
2019-04-12T01:33:43.438Z,48.75
2019-04-12T01:34:09.542Z,48.46
2019-04-12T01:34:35.653Z,48.63
2019-04-12T01:35:01.763Z,48.63
2019-04-12T01:35:27.868Z,48.66
2019-04-12T01:35:53.968Z,48.63
2019-04-12T01:36:20.074Z,48.63
2019-04-12T01:36:46.180Z,48.91
2019-04-12T01:37:12.315Z,48.91
2019-04-12T01:37:38.420Z,48.82
2019-04-12T01:38:04.529Z,48.91
2019-04-12T01:38:30.638Z,49.39
2019-04-12T01:38:56.784Z,49.49
2019-04-12T01:39:22.902Z,49.29
2019-04-12T01:39:49.015Z,49.49
2019-04-12T01:40:15.119Z,49.6
2019-04-12T01:40:41.286Z,49.58
2019-04-12T01:41:07.398Z,49.29
2019-04-12T01:41:33.527Z,49.49
2019-04-12T01:41:59.659Z,49.58
2019-04-12T01:42:25.793Z,49.87
2019-04-12T01:42:51.900Z,49.68
2019-04-12T01:43:18.006Z,49.96
2019-04-12T01:43:44.118Z,49.68
2019-04-12T01:44:10.225Z,50.05
2019-04-12T01:44:36.358Z,50.15
2019-04-12T01:45:02.441Z,50.24
2019-04-12T01:45:28.544Z,50.53
2019-04-12T01:45:54.685Z,50.46
2019-04-12T01:46:20.789Z,50.43
2019-04-12T01:46:46.897Z,50.27
2019-04-12T01:47:13.008Z,50.37
2019-04-12T01:47:39.112Z,50.34
2019-04-12T01:48:05.222Z,50.08
2019-04-12T01:48:31.419Z,50.53
2019-04-12T01:48:57.523Z,50.81
2019-04-12T01:49:23.663Z,50.72
2019-04-12T01:49:49.764Z,50.53
2019-04-12T01:50:15.871Z,50.43
2019-04-12T01:50:41.979Z,50.91
2019-04-12T01:51:08.118Z,50.72
2019-04-12T01:51:34.280Z,51.2
2019-04-12T01:52:00.387Z,51.76
2019-04-12T01:52:26.495Z,51.76
2019-04-12T01:52:52.609Z,51.48
2019-04-12T01:53:18.717Z,51.57
2019-04-12T01:53:44.818Z,51.48
2019-04-12T01:54:10.954Z,51.95
2019-04-12T01:54:37.061Z,51.57
2019-04-12T01:55:09.017Z,51.86
2019-04-12T01:55:31.280Z,52.05
2019-04-12T01:55:57.359Z,52.24
2019-04-12T01:56:23.464Z,52.33
2019-04-12T01:56:49.563Z,52.14
2019-04-12T01:57:15.699Z,51.95
2019-04-12T01:57:41.801Z,52.33
2019-04-12T01:58:07.906Z,52.43
2019-04-12T01:58:34.011Z,52.24
2019-04-12T01:59:00.119Z,52.72
2019-04-12T01:59:26.280Z,52.72
2019-04-12T01:59:52.391Z,52.91
2019-04-12T02:00:18.497Z,52.62
2019-04-12T02:00:44.601Z,52.91
2019-04-12T02:01:10.711Z,53.19
2019-04-12T02:01:36.818Z,53.09
2019-04-12T02:02:02.926Z,53
2019-04-12T02:02:29.037Z,53.19
2019-04-12T02:02:55.138Z,53.19
2019-04-12T02:03:21.251Z,53.09
2019-04-12T02:03:47.377Z,53
2019-04-12T02:04:13.482Z,53.38
2019-04-12T02:04:39.594Z,53.76
2019-04-12T02:05:05.723Z,54.14
2019-04-12T02:05:31.866Z,53.85
2019-04-12T02:05:57.969Z,54.14
2019-04-12T02:06:24.079Z,54.24
2019-04-12T02:06:50.180Z,54.05
2019-04-12T02:07:16.321Z,54.24
2019-04-12T02:07:42.430Z,54.8
2019-04-12T02:08:08.541Z,54.43
2019-04-12T02:08:34.648Z,54.61
2019-04-12T02:09:00.758Z,54.71
2019-04-12T02:09:26.863Z,54.99
2019-04-12T02:09:52.973Z,55.28
2019-04-12T02:10:19.080Z,54.9
2019-04-12T02:10:45.186Z,54.52
2019-04-12T02:11:11.291Z,54.43
2019-04-12T02:11:37.405Z,54.61
2019-04-12T02:12:03.566Z,54.61
2019-04-12T02:12:29.676Z,54.61
2019-04-12T02:12:55.805Z,55.18
2019-04-12T02:13:21.920Z,55.18
2019-04-12T02:13:48.049Z,54.9
2019-04-12T02:14:14.165Z,55.28
2019-04-12T02:14:40.270Z,54.99
2019-04-12T02:15:06.392Z,54.99
2019-04-12T02:15:32.507Z,54.9
2019-04-12T02:15:58.618Z,55.09
2019-04-12T02:16:24.722Z,54.99
2019-04-12T02:16:50.830Z,54.99
2019-04-12T02:17:16.930Z,55.28
2019-04-12T02:17:43.076Z,55.09
2019-04-12T02:18:09.176Z,55.57
2019-04-12T02:18:35.282Z,55.47
2019-04-12T02:19:01.392Z,55.57
2019-04-12T02:19:27.504Z,55.57
2019-04-12T02:19:53.614Z,55.76
2019-04-12T02:20:19.754Z,55.85
2019-04-12T02:20:45.859Z,55.94
2019-04-12T02:21:11.966Z,56.04
2019-04-12T02:21:38.101Z,56.13
2019-04-12T02:22:04.212Z,56.04
2019-04-12T02:22:30.323Z,55.94
2019-04-12T02:22:56.456Z,56.32
2019-04-12T02:23:22.600Z,56.42
2019-04-12T02:23:48.731Z,56.61
2019-04-12T02:24:14.836Z,56.61
2019-04-12T02:24:40.971Z,56.7
2019-04-12T02:25:07.109Z,56.7
2019-04-12T02:25:35.218Z,56.89
2019-04-12T02:26:01.355Z,57.09
2019-04-12T02:26:27.503Z,56.99
2019-04-12T02:26:53.644Z,56.89
2019-04-12T02:27:19.745Z,57.09
2019-04-12T02:27:45.914Z,57.09
2019-04-12T02:28:12.021Z,57.28
2019-04-12T02:28:38.158Z,56.99
2019-04-12T02:29:04.298Z,57.56
2019-04-12T02:29:30.403Z,57.28
2019-04-12T02:29:56.509Z,57.75
2019-04-12T02:30:22.677Z,57.37
2019-04-12T02:30:49.832Z,57.28
2019-04-12T02:31:15.970Z,57.09
2019-04-12T02:31:42.100Z,56.99
2019-04-12T02:32:08.239Z,57.18
2019-04-12T02:32:34.347Z,57.75
2019-04-12T02:33:00.466Z,57.75
2019-04-12T02:33:26.619Z,57.84
2019-04-12T02:33:52.752Z,58.2
2019-04-12T02:34:18.913Z,58.29
2019-04-12T02:34:45.079Z,58
2019-04-12T02:35:11.229Z,58.39
2019-04-12T02:35:37.354Z,58.39
2019-04-12T02:36:03.522Z,58
2019-04-12T02:36:29.647Z,58.39
2019-04-12T02:36:55.807Z,58.39
2019-04-12T02:37:21.955Z,58.51
2019-04-12T02:37:48.103Z,58.51
2019-04-12T02:38:14.256Z,58.32
2019-04-12T02:38:40.443Z,58.51
2019-04-12T02:39:06.634Z,58.22
2019-04-12T02:39:32.735Z,58.41
2019-04-12T02:39:58.908Z,58.41
2019-04-12T02:40:25.108Z,58.22
2019-04-12T02:40:51.199Z,58.41
2019-04-12T02:41:17.336Z,58.41
2019-04-12T02:41:43.503Z,58.51
2019-04-12T02:42:09.665Z,58.41
2019-04-12T02:42:35.802Z,58.41
2019-04-12T02:43:01.971Z,58.51
2019-04-12T02:43:28.074Z,58.61
2019-04-12T02:43:54.185Z,58.51
2019-04-12T02:44:20.326Z,58.51
2019-04-12T02:44:46.438Z,58.41
2019-04-12T02:45:12.604Z,58.98
2019-04-12T02:45:38.707Z,58.89
2019-04-12T02:46:04.866Z,58.7
2019-04-12T02:46:30.976Z,58.89
2019-04-12T02:46:57.143Z,58.7
2019-04-12T02:47:23.306Z,58.8
2019-04-12T02:47:49.435Z,58.89
2019-04-12T02:48:15.572Z,58.89
2019-04-12T02:48:41.708Z,58.7
2019-04-12T02:49:07.815Z,58.8
2019-04-12T02:49:33.956Z,58.89
2019-04-12T02:50:00.088Z,58.89
2019-04-12T02:50:26.221Z,58.89
2019-04-12T02:50:52.361Z,58.61
2019-04-12T02:51:18.496Z,58.98
2019-04-12T02:51:44.640Z,59.08
2019-04-12T02:52:10.841Z,59.36
2019-04-12T02:52:36.967Z,59.93
2019-04-12T02:53:03.145Z,59.46
2019-04-12T02:53:29.282Z,60.03
2019-04-12T02:53:55.448Z,59.36
2019-04-12T02:54:24.871Z,59.93
2019-04-12T02:54:48.682Z,59.46
2019-04-12T02:55:14.792Z,59.17
2019-04-12T02:55:42.906Z,59.17
2019-04-12T02:56:09.043Z,59.08
2019-04-12T02:56:35.180Z,58.89
2019-04-12T02:57:01.318Z,59.36
2019-04-12T02:57:27.446Z,59.93
2019-04-12T02:57:53.578Z,59.74
2019-04-12T02:58:19.721Z,59.93
2019-04-12T02:58:45.856Z,59.74
2019-04-12T02:59:11.998Z,59.36
2019-04-12T02:59:38.147Z,59.27
2019-04-12T03:00:04.282Z,59.84
2019-04-12T03:00:30.534Z,59.74
2019-04-12T03:00:56.644Z,58.98
2019-04-12T03:01:22.749Z,59.17
2019-04-12T03:01:48.914Z,58.8
2019-04-12T03:02:15.081Z,58.89
2019-04-12T03:02:41.296Z,58.7
2019-04-12T03:03:07.343Z,58.98
2019-04-12T03:03:33.508Z,59.08
2019-04-12T03:03:59.700Z,59.55
2019-04-12T03:04:25.841Z,59.93
2019-04-12T03:04:51.945Z,59.93
2019-04-12T03:05:18.090Z,59.27
2019-04-12T03:05:44.199Z,59.55
2019-04-12T03:06:10.391Z,59.46
2019-04-12T03:06:36.531Z,59.65
2019-04-12T03:07:02.641Z,60.03
2019-04-12T03:07:28.802Z,60.03
2019-04-12T03:07:54.945Z,60.41
2019-04-12T03:08:21.140Z,60.6
2019-04-12T03:08:47.245Z,60.41
2019-04-12T03:09:13.385Z,60.6
2019-04-12T03:09:39.548Z,60.41
2019-04-12T03:10:06.654Z,60.41
2019-04-12T03:10:32.746Z,60.6
2019-04-12T03:10:58.862Z,60.41
2019-04-12T03:11:24.976Z,60.41
2019-04-12T03:11:51.122Z,60.13
2019-04-12T03:12:17.265Z,60.31
2019-04-12T03:12:43.429Z,60.41
2019-04-12T03:13:09.561Z,60.41
2019-04-12T03:13:35.695Z,60.5
2019-04-12T03:14:01.832Z,60.41
2019-04-12T03:14:28.025Z,60.79
2019-04-12T03:14:54.170Z,60.88
2019-04-12T03:15:20.331Z,60.66
2019-04-12T03:15:46.496Z,60.69
2019-04-12T03:16:12.598Z,60.88
2019-04-12T03:16:38.707Z,60.88
2019-04-12T03:17:04.820Z,60.79
2019-04-12T03:17:30.955Z,61.17
2019-04-12T03:17:57.058Z,61.26
2019-04-12T03:18:23.166Z,61.17
2019-04-12T03:18:49.297Z,61.07
2019-04-12T03:19:15.408Z,60.98
2019-04-12T03:19:41.514Z,61.26
2019-04-12T03:20:07.649Z,61.17
2019-04-12T03:20:33.785Z,61.17
2019-04-12T03:20:59.909Z,60.41
2019-04-12T03:21:26.029Z,60.79
2019-04-12T03:21:52.135Z,60.79
2019-04-12T03:22:18.323Z,60.6
2019-04-12T03:22:44.435Z,60.79
2019-04-12T03:23:10.571Z,61.17
2019-04-12T03:23:36.714Z,60.69
2019-04-12T03:24:02.818Z,60.69
2019-04-12T03:24:28.928Z,60.79
2019-04-12T03:24:55.038Z,60.41
2019-04-12T03:25:21.146Z,60.69
2019-04-12T03:25:53.267Z,60.6
2019-04-12T03:26:16.369Z,61.07
2019-04-12T03:26:42.529Z,60.66
2019-04-12T03:27:08.672Z,61.17
2019-04-12T03:27:34.810Z,61.74
2019-04-12T03:28:00.932Z,61.42
2019-04-12T03:28:27.073Z,62.18
2019-04-12T03:28:53.235Z,61.99
2019-04-12T03:29:19.376Z,61.83
2019-04-12T03:29:45.494Z,61.74
2019-04-12T03:30:11.612Z,62.12
2019-04-12T03:30:37.856Z,62.02
2019-04-12T03:31:03.995Z,62.02
2019-04-12T03:31:30.133Z,61.45
2019-04-12T03:31:56.269Z,61.26
2019-04-12T03:32:22.387Z,61.26
2019-04-12T03:32:48.525Z,61.65
2019-04-12T03:33:14.700Z,61.45
2019-04-12T03:33:40.842Z,61.45
2019-04-12T03:34:06.988Z,61.65
2019-04-12T03:34:33.143Z,61.65
2019-04-12T03:34:59.297Z,61.45
2019-04-12T03:35:25.482Z,61.93
2019-04-12T03:35:51.634Z,61.65
2019-04-12T03:36:17.760Z,61.65
2019-04-12T03:36:43.872Z,61.45
2019-04-12T03:37:10.008Z,61.55
2019-04-12T03:37:36.206Z,61.99
2019-04-12T03:38:02.395Z,62.12
2019-04-12T03:38:28.527Z,62.37
2019-04-12T03:38:54.658Z,62.27
2019-04-12T03:39:20.768Z,62.18
2019-04-12T03:39:46.899Z,62.4
2019-04-12T03:40:13.008Z,62.31
2019-04-12T03:40:39.112Z,62.31
2019-04-12T03:41:05.279Z,62.59
2019-04-12T03:41:31.382Z,62.69
2019-04-12T03:41:57.521Z,62.27
2019-04-12T03:42:23.626Z,62.56
2019-04-12T03:42:49.784Z,62.5
2019-04-12T03:43:15.922Z,62.59
2019-04-12T03:43:42.058Z,62.56
2019-04-12T03:44:08.220Z,62.94
2019-04-12T03:44:34.394Z,63.07
2019-04-12T03:45:00.532Z,63.07
2019-04-12T03:45:26.649Z,62.78
2019-04-12T03:45:52.800Z,62.88
2019-04-12T03:46:18.909Z,62.69
2019-04-12T03:46:45.013Z,62.97
2019-04-12T03:47:11.155Z,63.07
2019-04-12T03:47:37.319Z,63.54
2019-04-12T03:48:03.482Z,63.35
2019-04-12T03:48:29.633Z,63.45
2019-04-12T03:48:55.754Z,63.45
2019-04-12T03:49:21.882Z,63.45
2019-04-12T03:49:48.022Z,63.26
2019-04-12T03:50:14.129Z,63.35
2019-04-12T03:50:40.235Z,63.35
2019-04-12T03:51:06.369Z,63.45
2019-04-12T03:51:32.534Z,63.35
2019-04-12T03:51:58.640Z,63.45
2019-04-12T03:52:24.749Z,63.45
2019-04-12T03:52:50.917Z,63.45
2019-04-12T03:53:17.086Z,63.45
2019-04-12T03:53:43.214Z,63.35
2019-04-12T03:54:09.357Z,63.07
2019-04-12T03:54:35.520Z,63.35
2019-04-12T03:55:01.621Z,63.35
2019-04-12T03:55:27.730Z,63.35
2019-04-12T03:56:07.170Z,63.35
2019-04-12T03:56:22.162Z,63.35
2019-04-12T03:56:48.300Z,63.32
2019-04-12T03:57:14.469Z,64.11
2019-04-12T03:57:40.606Z,63.89
2019-04-12T03:58:06.739Z,63.7
2019-04-12T03:58:32.910Z,64.46
2019-04-12T03:58:59.045Z,64.27
2019-04-12T03:59:25.242Z,64.27
2019-04-12T03:59:51.432Z,64.37
2019-04-12T04:00:17.567Z,64.17
2019-04-12T04:00:44.661Z,65.03
2019-04-12T04:01:10.888Z,64.75
2019-04-12T04:01:37.011Z,65.22
2019-04-12T04:02:03.176Z,65.5
2019-04-12T04:02:29.316Z,65.22
2019-04-12T04:02:55.422Z,65.03
2019-04-12T04:03:21.558Z,65.31
2019-04-12T04:03:47.721Z,65.22
2019-04-12T04:04:13.855Z,65.12
2019-04-12T04:04:39.968Z,65.41
2019-04-12T04:05:06.161Z,65.03
2019-04-12T04:05:32.325Z,65.03
2019-04-12T04:05:58.451Z,65.03
2019-04-12T04:06:24.597Z,65.03
2019-04-12T04:06:51.569Z,65.41
2019-04-12T04:07:17.771Z,65.31
2019-04-12T04:07:43.993Z,65.79
2019-04-12T04:08:10.135Z,65.69
2019-04-12T04:08:36.246Z,65.79
2019-04-12T04:09:02.382Z,65.79
2019-04-12T04:09:28.525Z,65.88
2019-04-12T04:09:54.655Z,66.27
2019-04-12T04:10:20.799Z,65.88
2019-04-12T04:10:46.928Z,66.36
2019-04-12T04:11:13.061Z,66.36
2019-04-12T04:11:39.172Z,66.08
2019-04-12T04:12:05.336Z,66.17
2019-04-12T04:12:31.445Z,65.6
2019-04-12T04:12:57.617Z,65.88
2019-04-12T04:13:23.786Z,65.98
2019-04-12T04:13:49.928Z,66.08
2019-04-12T04:14:16.059Z,66.08
2019-04-12T04:14:42.168Z,65.88
2019-04-12T04:15:08.303Z,65.79
2019-04-12T04:15:34.408Z,65.98
2019-04-12T04:16:00.573Z,65.79
2019-04-12T04:16:26.727Z,65.98
2019-04-12T04:16:52.840Z,65.88
2019-04-12T04:17:18.985Z,65.79
2019-04-12T04:17:45.085Z,65.6
2019-04-12T04:18:11.238Z,65.79
2019-04-12T04:18:37.379Z,65.6
2019-04-12T04:19:03.571Z,65.6
2019-04-12T04:19:29.680Z,66.08
2019-04-12T04:19:55.804Z,66.36
2019-04-12T04:20:22.899Z,66.36
2019-04-12T04:20:49.257Z,66.36
2019-04-12T04:21:15.589Z,66.27
2019-04-12T04:21:41.742Z,66.46
2019-04-12T04:22:07.880Z,66.17
2019-04-12T04:22:33.979Z,66.46
2019-04-12T04:23:00.118Z,65.98
2019-04-12T04:23:26.262Z,65.88
2019-04-12T04:23:52.423Z,66.27
2019-04-12T04:24:18.575Z,66.46
2019-04-12T04:24:44.708Z,66.36
2019-04-12T04:25:10.846Z,66.93
2019-04-12T04:25:36.986Z,67.12
2019-04-12T04:26:03.233Z,66.83
2019-04-12T04:26:32.315Z,66.74
2019-04-12T04:26:58.457Z,66.83
2019-04-12T04:27:24.584Z,66.36
2019-04-12T04:27:50.725Z,66.08
2019-04-12T04:28:16.892Z,65.98
2019-04-12T04:28:43.004Z,66.36
2019-04-12T04:29:09.197Z,66.17
2019-04-12T04:29:35.295Z,66.46
2019-04-12T04:30:01.457Z,66.46
2019-04-12T04:30:27.619Z,66.36
2019-04-12T04:30:53.794Z,66.08
2019-04-12T04:31:19.915Z,66.27
2019-04-12T04:31:46.057Z,66.17
2019-04-12T04:32:13.203Z,65.98
2019-04-12T04:32:39.312Z,66.64
2019-04-12T04:33:05.443Z,66.36
2019-04-12T04:33:31.650Z,67.12
2019-04-12T04:33:57.751Z,66.74
2019-04-12T04:34:23.913Z,66.64
2019-04-12T04:34:50.131Z,67.21
2019-04-12T04:35:16.273Z,67.02
2019-04-12T04:35:42.393Z,66.83
2019-04-12T04:36:08.539Z,67.12
2019-04-12T04:36:34.636Z,66.93
2019-04-12T04:37:00.739Z,66.64
2019-04-12T04:37:26.910Z,66.83
2019-04-12T04:37:53.069Z,66.83
2019-04-12T04:38:19.241Z,66.93
2019-04-12T04:38:46.422Z,67.4
2019-04-12T04:39:12.548Z,67.5
2019-04-12T04:39:38.657Z,67.31
2019-04-12T04:40:04.756Z,67.31
2019-04-12T04:40:30.873Z,67.12
2019-04-12T04:40:57.009Z,66.74
2019-04-12T04:41:23.142Z,66.83
2019-04-12T04:41:49.253Z,66.93
2019-04-12T04:42:15.387Z,66.93
2019-04-12T04:42:41.525Z,66.74
2019-04-12T04:43:07.676Z,67.21
2019-04-12T04:43:33.793Z,66.93
2019-04-12T04:43:59.954Z,67.02
2019-04-12T04:44:26.096Z,67.31
2019-04-12T04:44:52.216Z,67.31
2019-04-12T04:45:18.353Z,67.31
2019-04-12T04:45:44.463Z,67.79
2019-04-12T04:46:10.572Z,67.31
2019-04-12T04:46:36.672Z,67.12
2019-04-12T04:47:02.837Z,67.5
2019-04-12T04:47:28.966Z,67.4
2019-04-12T04:47:55.076Z,67.5
2019-04-12T04:48:21.213Z,67.12
2019-04-12T04:48:47.347Z,67.59
2019-04-12T04:49:13.519Z,67.69
2019-04-12T04:49:39.655Z,67.59
2019-04-12T04:50:05.772Z,67.79
2019-04-12T04:50:31.939Z,67.79
2019-04-12T04:50:58.076Z,67.97
2019-04-12T04:51:24.216Z,68.07
2019-04-12T04:51:50.349Z,68.26
2019-04-12T04:52:16.672Z,68.54
2019-04-12T04:52:42.771Z,68.26
2019-04-12T04:53:08.876Z,68.16
2019-04-12T04:53:35.020Z,68.83
2019-04-12T04:54:01.157Z,68.54
2019-04-12T04:54:27.261Z,68.73
2019-04-12T04:54:53.389Z,68.26
2019-04-12T04:55:19.504Z,68.16
2019-04-12T04:55:45.686Z,68.07
2019-04-12T04:56:11.838Z,68.73
2019-04-12T04:56:39.929Z,67.97
2019-04-12T04:57:06.028Z,68.07
2019-04-12T04:57:32.131Z,67.97
2019-04-12T04:57:58.264Z,68.16
2019-04-12T04:58:24.371Z,67.97
2019-04-12T04:58:50.477Z,68.73
2019-04-12T04:59:16.588Z,68.73
2019-04-12T04:59:42.693Z,68.92
2019-04-12T05:00:08.805Z,68.92
2019-04-12T05:00:34.907Z,68.98
2019-04-12T05:01:01.021Z,68.79
2019-04-12T05:01:27.162Z,68.79
2019-04-12T05:01:53.288Z,69.55
2019-04-12T05:02:19.404Z,69.36
2019-04-12T05:02:45.510Z,69.46
2019-04-12T05:03:12.608Z,70.21
2019-04-12T05:03:38.734Z,69.84
2019-04-12T05:04:04.849Z,70.12
2019-04-12T05:04:31.040Z,70.03
2019-04-12T05:04:57.151Z,69.65
2019-04-12T05:05:23.251Z,69.17
2019-04-12T05:05:49.368Z,70.25
2019-04-12T05:06:15.466Z,69.4
2019-04-12T05:06:41.606Z,69.21
2019-04-12T05:07:07.737Z,69.3
2019-04-12T05:07:33.882Z,68.92
2019-04-12T05:08:00.009Z,69.11
2019-04-12T05:08:26.092Z,69.3
2019-04-12T05:08:52.241Z,69.4
2019-04-12T05:09:18.347Z,69.4
2019-04-12T05:09:44.474Z,69.4
2019-04-12T05:10:10.611Z,69.3
2019-04-12T05:10:36.720Z,69.3
2019-04-12T05:11:02.829Z,69.3
2019-04-12T05:11:28.963Z,69.21
2019-04-12T05:11:55.097Z,69.3
2019-04-12T05:12:21.206Z,69.11
2019-04-12T05:12:47.317Z,69.49
2019-04-12T05:13:13.445Z,68.92
2019-04-12T05:13:39.580Z,69.3
2019-04-12T05:14:05.706Z,69.3
2019-04-12T05:14:31.852Z,69.11
2019-04-12T05:14:57.981Z,69.49
2019-04-12T05:15:24.090Z,69.4
2019-04-12T05:15:50.200Z,69.68
2019-04-12T05:16:16.299Z,69.3
2019-04-12T05:16:42.407Z,69.59
2019-04-12T05:17:08.515Z,69.49
2019-04-12T05:17:34.655Z,69.3
2019-04-12T05:18:00.960Z,69.49
2019-04-12T05:18:27.096Z,69.68
2019-04-12T05:18:53.200Z,69.02
2019-04-12T05:19:19.304Z,69.49
2019-04-12T05:19:45.413Z,69.11
2019-04-12T05:20:11.553Z,69.49
2019-04-12T05:20:37.660Z,69.3
2019-04-12T05:21:03.766Z,69.02
2019-04-12T05:21:29.872Z,69.3
2019-04-12T05:21:55.983Z,69.02
2019-04-12T05:22:22.079Z,69.11
2019-04-12T05:22:49.129Z,69.11
2019-04-12T05:23:15.263Z,69.4
2019-04-12T05:23:41.376Z,69.11
2019-04-12T05:24:07.480Z,69.59
2019-04-12T05:24:33.612Z,69.4
2019-04-12T05:24:59.723Z,69.3
2019-04-12T05:25:25.835Z,69.49
2019-04-12T05:25:51.939Z,69.87
2019-04-12T05:26:18.067Z,70.4
2019-04-12T05:26:45.581Z,70.54
2019-04-12T05:27:11.315Z,71.11
2019-04-12T05:27:37.424Z,70.78
2019-04-12T05:28:03.526Z,70.82
2019-04-12T05:28:29.643Z,70.73
2019-04-12T05:28:55.769Z,70.92
2019-04-12T05:29:21.903Z,70.35
2019-04-12T05:29:48.036Z,70.44
2019-04-12T05:30:14.185Z,70.54
2019-04-12T05:30:40.320Z,70.63
2019-04-12T05:31:06.430Z,70.54
2019-04-12T05:31:32.546Z,71.07
2019-04-12T05:31:58.647Z,70.78
2019-04-12T05:32:24.751Z,70.73
2019-04-12T05:32:50.859Z,70.73
2019-04-12T05:33:16.971Z,70.5
2019-04-12T05:33:43.140Z,70.78
2019-04-12T05:34:10.239Z,70.78
2019-04-12T05:34:36.353Z,70.98
2019-04-12T05:35:02.455Z,70.5
2019-04-12T05:35:28.564Z,70.69
2019-04-12T05:35:54.705Z,70.78
2019-04-12T05:36:20.810Z,70.78
2019-04-12T05:36:46.921Z,70.69
2019-04-12T05:37:15.040Z,71.07
2019-04-12T05:37:41.137Z,71.36
2019-04-12T05:38:07.247Z,71.55
2019-04-12T05:38:33.357Z,71.07
2019-04-12T05:38:59.463Z,71.73
2019-04-12T05:39:25.564Z,71.83
2019-04-12T05:39:51.676Z,71.26
2019-04-12T05:40:17.816Z,71.17
2019-04-12T05:40:43.918Z,71.07